上海/浦東 の空港の天気 - METARとTAF

上海浦東国際空港 ( ZSPD / PVG ) - 中国 上海市
飛行場実況気象(Metar)
観測時間10/16 14:30 CST (10/16 06:30 UTC)
風向・風速北北東 7m/s
視程10km以上
天気現象
全天の8割程度の雲 雲底高度 460m
気温19℃
湿度78%
気圧1016hPa
METARZSPD 160630Z 03007MPS 9999 BKN015 19/15 Q1016 NOSIG
過去の天気等 Google飛行場航空写真 Wunderground天気予報

過去48時間のMETAR

飛行場予報(TAF)
発表時間: 10/16 11:13 CST (10/16 03:13 UTC)
予報対象時間: 16日14時 CST ~ 17日14時 CST
風向・風速北 4m/s
視程6000m
全天の8割程度の雲 雲底高度 400m
TAF ZSPD 160313Z 1606/1706 01004MPS 6000 BKN013 TX21/1606Z TN14/1621Z